createdAt,value
2022-10-26T00:00:18.205Z,2.84
2022-10-26T00:15:10.095Z,3.03
2022-10-26T00:30:01.794Z,2.76
2022-10-26T00:44:59.230Z,2.49
2022-10-26T00:59:55.119Z,3.37
2022-10-26T01:14:46.168Z,2.96
2022-10-26T01:30:15.980Z,3.22
2022-10-26T01:45:13.025Z,2.53
2022-10-26T02:00:10.227Z,2.73
2022-10-26T02:15:04.549Z,3.33
2022-10-26T02:29:56.205Z,3.94
2022-10-26T02:44:49.853Z,3.67
2022-10-26T02:59:44.455Z,4.29
2022-10-26T03:14:35.494Z,4.28
2022-10-26T03:29:27.169Z,3.40
2022-10-26T03:44:18.263Z,3.67
2022-10-26T03:59:09.844Z,4.19
2022-10-26T04:14:01.288Z,3.67
2022-10-26T04:28:52.623Z,3.61
2022-10-26T04:43:44.351Z,3.51
2022-10-26T04:58:36.569Z,3.74
2022-10-26T05:13:28.257Z,4.06
2022-10-26T05:28:20.511Z,4.76
2022-10-26T05:43:12.825Z,4.69
2022-10-26T05:58:05.253Z,4.89
2022-10-26T06:12:56.740Z,5.64
2022-10-26T06:28:03.329Z,5.00
2022-10-26T06:43:00.662Z,6.21
2022-10-26T06:57:52.456Z,7.19
2022-10-26T07:12:43.765Z,5.78
2022-10-26T07:27:35.480Z,5.79
2022-10-26T07:42:26.617Z,4.59
2022-10-26T07:57:18.715Z,3.92
2022-10-26T08:12:11.139Z,4.22
2022-10-26T08:27:03.664Z,3.61
2022-10-26T08:41:55.908Z,3.79
2022-10-26T08:56:50.715Z,3.80
2022-10-26T09:12:02.925Z,4.41
2022-10-26T09:27:23.566Z,3.33
2022-10-26T09:42:27.673Z,2.69
2022-10-26T09:57:25.188Z,2.60
2022-10-26T10:12:18.237Z,2.48
2022-10-26T10:27:13.460Z,2.78
2022-10-26T10:42:23.228Z,2.69
2022-10-26T10:57:21.790Z,2.30
2022-10-26T11:12:19.536Z,2.44
2022-10-26T11:27:17.730Z,2.73
2022-10-26T11:42:15.930Z,2.21
2022-10-26T11:57:11.239Z,2.29
2022-10-26T12:12:07.771Z,2.09
2022-10-26T12:27:04.847Z,2.47
2022-10-26T12:41:59.223Z,1.95
2022-10-26T12:57:00.986Z,2.10
2022-10-26T13:11:57.772Z,2.20
2022-10-26T13:27:05.305Z,2.00
2022-10-26T13:42:02.833Z,2.29
2022-10-26T13:56:54.211Z,2.19
2022-10-26T14:11:44.909Z,2.46
2022-10-26T14:26:39.211Z,2.31
2022-10-26T14:41:35.023Z,2.36
2022-10-26T14:56:37.183Z,2.26
2022-10-26T15:11:33.274Z,2.66
2022-10-26T15:26:24.796Z,2.60
2022-10-26T15:41:19.004Z,2.87
2022-10-26T15:56:14.018Z,2.85
2022-10-26T16:11:05.468Z,4.01
2022-10-26T16:25:56.972Z,3.51
2022-10-26T16:40:47.758Z,3.36
2022-10-26T16:55:39.097Z,3.47
2022-10-26T17:10:30.351Z,3.72
2022-10-26T17:25:21.633Z,7.69
2022-10-26T17:40:12.911Z,6.68
2022-10-26T17:55:03.300Z,6.14
2022-10-26T18:10:33.213Z,5.07
2022-10-26T18:25:29.740Z,6.39
2022-10-26T18:40:50.138Z,5.87
2022-10-26T18:55:41.136Z,6.22
2022-10-26T19:10:32.075Z,6.31
2022-10-26T19:25:23.392Z,6.00
2022-10-26T19:40:15.565Z,6.11
2022-10-26T19:55:06.540Z,6.78
2022-10-26T20:09:58.356Z,6.63
2022-10-26T20:24:50.162Z,5.89
2022-10-26T20:39:41.808Z,6.41
2022-10-26T20:54:33.748Z,5.38
2022-10-26T21:09:26.080Z,5.90
2022-10-26T21:24:15.898Z,6.44
2022-10-26T21:39:10.824Z,7.86
2022-10-26T21:54:01.956Z,6.74
2022-10-26T22:08:52.413Z,7.78
2022-10-26T22:23:43.551Z,6.91
2022-10-26T22:38:34.477Z,6.63
2022-10-26T22:53:25.737Z,5.77
2022-10-26T23:08:17.293Z,6.09
2022-10-26T23:23:08.182Z,6.84
2022-10-26T23:37:58.946Z,6.99
2022-10-26T23:52:50.465Z,6.71
